createdAt,value
2022-11-16T00:03:40.619Z,100.00
2022-11-16T00:18:32.835Z,100.00
2022-11-16T00:33:24.213Z,100.00
2022-11-16T00:48:15.887Z,100.00
2022-11-16T01:03:07.132Z,100.00
2022-11-16T01:17:58.044Z,100.00
2022-11-16T01:32:49.680Z,100.00
2022-11-16T01:47:41.122Z,100.00
2022-11-16T02:02:34.686Z,100.00
2022-11-16T02:17:38.356Z,100.00
2022-11-16T02:32:35.358Z,100.00
2022-11-16T02:47:28.221Z,100.00
2022-11-16T03:02:34.485Z,100.00
2022-11-16T03:17:41.867Z,100.00
2022-11-16T03:32:49.410Z,100.00
2022-11-16T03:47:45.009Z,100.00
2022-11-16T04:02:37.301Z,100.00
2022-11-16T04:17:47.310Z,100.00
2022-11-16T04:33:02.075Z,100.00
2022-11-16T04:47:59.453Z,100.00
2022-11-16T05:02:51.418Z,100.00
2022-11-16T05:17:43.192Z,100.00
2022-11-16T05:32:34.858Z,100.00
2022-11-16T05:47:26.147Z,100.00
2022-11-16T06:02:18.095Z,100.00
2022-11-16T06:17:10.185Z,100.00
2022-11-16T06:32:01.939Z,100.00
2022-11-16T06:46:52.858Z,100.00
2022-11-16T07:01:45.042Z,100.00
2022-11-16T07:16:36.879Z,100.00
2022-11-16T07:31:28.728Z,100.00
2022-11-16T07:46:45.440Z,100.00
2022-11-16T08:01:12.305Z,100.00
2022-11-16T08:16:04.186Z,100.00
2022-11-16T08:30:56.810Z,100.00
2022-11-16T08:45:49.222Z,100.00
2022-11-16T09:00:47.719Z,100.00
2022-11-16T09:15:37.650Z,100.00
2022-11-16T09:30:30.113Z,98.70
2022-11-16T09:45:42.451Z,97.12
2022-11-16T10:00:40.311Z,95.14
2022-11-16T10:15:50.886Z,94.65
2022-11-16T10:30:59.561Z,88.41
2022-11-16T10:46:05.087Z,86.33
2022-11-16T11:01:00.965Z,86.58
2022-11-16T11:16:17.332Z,85.12
2022-11-16T11:31:27.649Z,79.04
2022-11-16T11:46:35.879Z,79.95
2022-11-16T12:01:31.789Z,78.71
2022-11-16T12:16:46.248Z,73.02
2022-11-16T12:32:09.280Z,70.03
2022-11-16T12:47:15.386Z,69.00
2022-11-16T13:02:11.836Z,67.87
2022-11-16T13:17:05.401Z,65.94
2022-11-16T13:32:05.236Z,65.76
2022-11-16T13:47:01.076Z,63.45
2022-11-16T14:01:56.858Z,65.07
2022-11-16T14:16:51.926Z,64.35
2022-11-16T14:31:55.038Z,64.09
2022-11-16T14:46:50.704Z,65.25
2022-11-16T15:01:41.038Z,67.83
2022-11-16T15:16:31.688Z,68.71
2022-11-16T15:31:22.723Z,73.08
2022-11-16T15:46:12.814Z,74.66
2022-11-16T16:01:02.092Z,75.27
2022-11-16T16:15:53.689Z,76.20
2022-11-16T16:30:54.776Z,72.29
2022-11-16T16:45:50.693Z,72.17
2022-11-16T17:00:36.448Z,72.31
2022-11-16T17:15:26.627Z,72.67
2022-11-16T17:30:17.468Z,72.54
2022-11-16T18:31:34.974Z,71.83
2022-11-16T19:01:30.994Z,70.53
2022-11-16T19:16:23.123Z,71.77
2022-11-16T19:31:15.677Z,73.09
2022-11-16T19:46:08.431Z,73.37
2022-11-16T20:01:04.709Z,72.45
2022-11-16T20:15:57.875Z,73.44
2022-11-16T20:30:49.435Z,73.25
2022-11-16T20:45:40.473Z,73.51
2022-11-16T21:00:31.845Z,72.72
2022-11-16T21:15:22.520Z,72.39
2022-11-16T21:30:13.800Z,73.33
2022-11-16T21:45:05.826Z,73.62
2022-11-16T21:59:57.560Z,72.56
2022-11-16T22:14:49.246Z,73.37
2022-11-16T22:29:40.238Z,72.66
2022-11-16T22:44:32.887Z,73.44
2022-11-16T22:59:26.158Z,73.87
2022-11-16T23:14:35.540Z,76.75
2022-11-16T23:29:29.828Z,78.10
2022-11-16T23:44:20.965Z,80.42
2022-11-16T23:59:12.318Z,81.32
